sensor_id;sensor_type;location;lat;lon;timestamp;temperature;humidity
9658;DHT22;4867;48.112;11.622;2023-04-24T00:01:26;10.90;99.90
9658;DHT22;4867;48.112;11.622;2023-04-24T00:03:56;10.90;99.90
9658;DHT22;4867;48.112;11.622;2023-04-24T00:06:26;10.80;99.90
9658;DHT22;4867;48.112;11.622;2023-04-24T00:09:00;10.80;99.90
9658;DHT22;4867;48.112;11.622;2023-04-24T00:11:28;10.80;99.90
9658;DHT22;4867;48.112;11.622;2023-04-24T00:13:56;10.80;99.90
9658;DHT22;4867;48.112;11.622;2023-04-24T00:16:23;10.80;99.90
9658;DHT22;4867;48.112;11.622;2023-04-24T00:18:51;10.80;99.90
9658;DHT22;4867;48.112;11.622;2023-04-24T00:21:19;10.80;99.90
9658;DHT22;4867;48.112;11.622;2023-04-24T00:23:47;10.80;99.90
9658;DHT22;4867;48.112;11.622;2023-04-24T00:26:14;10.80;99.90
9658;DHT22;4867;48.112;11.622;2023-04-24T00:28:42;10.70;99.90
9658;DHT22;4867;48.112;11.622;2023-04-24T00:31:09;10.70;99.90
9658;DHT22;4867;48.112;11.622;2023-04-24T00:33:37;10.60;99.90
9658;DHT22;4867;48.112;11.622;2023-04-24T00:36:04;10.70;99.90
9658;DHT22;4867;48.112;11.622;2023-04-24T00:38:31;10.70;99.90
9658;DHT22;4867;48.112;11.622;2023-04-24T00:40:58;10.80;99.90
9658;DHT22;4867;48.112;11.622;2023-04-24T00:43:26;10.70;99.90
9658;DHT22;4867;48.112;11.622;2023-04-24T00:45:54;10.70;99.90
9658;DHT22;4867;48.112;11.622;2023-04-24T00:48:23;10.60;99.90
9658;DHT22;4867;48.112;11.622;2023-04-24T00:50:51;10.70;99.90
9658;DHT22;4867;48.112;11.622;2023-04-24T00:53:18;10.50;99.90
9658;DHT22;4867;48.112;11.622;2023-04-24T00:55:46;10.60;99.90
9658;DHT22;4867;48.112;11.622;2023-04-24T00:58:13;10.60;99.90
9658;DHT22;4867;48.112;11.622;2023-04-24T01:00:41;10.60;99.90
9658;DHT22;4867;48.112;11.622;2023-04-24T01:03:09;10.60;99.90
9658;DHT22;4867;48.112;11.622;2023-04-24T01:05:38;10.50;99.90
9658;DHT22;4867;48.112;11.622;2023-04-24T01:08:06;10.60;99.90
9658;DHT22;4867;48.112;11.622;2023-04-24T01:10:34;10.50;99.90
9658;DHT22;4867;48.112;11.622;2023-04-24T01:13:03;10.40;99.90
9658;DHT22;4867;48.112;11.622;2023-04-24T01:15:31;10.30;99.90
9658;DHT22;4867;48.112;11.622;2023-04-24T01:17:58;10.40;99.90
9658;DHT22;4867;48.112;11.622;2023-04-24T01:20:26;10.40;99.90
9658;DHT22;4867;48.112;11.622;2023-04-24T01:22:54;10.30;99.90
9658;DHT22;4867;48.112;11.622;2023-04-24T01:25:24;10.30;99.90
9658;DHT22;4867;48.112;11.622;2023-04-24T01:27:52;10.30;99.90
9658;DHT22;4867;48.112;11.622;2023-04-24T01:30:20;10.30;99.90
9658;DHT22;4867;48.112;11.622;2023-04-24T01:32:47;10.30;99.90
9658;DHT22;4867;48.112;11.622;2023-04-24T01:35:15;10.30;99.90
9658;DHT22;4867;48.112;11.622;2023-04-24T01:37:42;10.30;99.90
9658;DHT22;4867;48.112;11.622;2023-04-24T01:40:10;10.20;99.90
9658;DHT22;4867;48.112;11.622;2023-04-24T01:42:37;10.20;99.90
9658;DHT22;4867;48.112;11.622;2023-04-24T01:45:05;10.20;99.90
9658;DHT22;4867;48.112;11.622;2023-04-24T01:47:33;10.10;99.90
9658;DHT22;4867;48.112;11.622;2023-04-24T01:50:00;10.10;99.90
9658;DHT22;4867;48.112;11.622;2023-04-24T01:52:27;10.10;99.90
9658;DHT22;4867;48.112;11.622;2023-04-24T01:54:59;10.00;99.90
9658;DHT22;4867;48.112;11.622;2023-04-24T01:57:27;9.90;99.90
9658;DHT22;4867;48.112;11.622;2023-04-24T01:59:54;10.10;99.90
9658;DHT22;4867;48.112;11.622;2023-04-24T02:02:22;10.00;99.90
9658;DHT22;4867;48.112;11.622;2023-04-24T02:04:51;10.00;99.90
9658;DHT22;4867;48.112;11.622;2023-04-24T02:07:18;9.90;99.90
9658;DHT22;4867;48.112;11.622;2023-04-24T02:09:45;10.00;99.90
9658;DHT22;4867;48.112;11.622;2023-04-24T02:12:13;9.90;99.90
9658;DHT22;4867;48.112;11.622;2023-04-24T02:14:41;10.00;99.90
9658;DHT22;4867;48.112;11.622;2023-04-24T02:17:10;9.90;99.90
9658;DHT22;4867;48.112;11.622;2023-04-24T02:19:39;9.90;99.90
9658;DHT22;4867;48.112;11.622;2023-04-24T02:22:06;10.00;99.90
9658;DHT22;4867;48.112;11.622;2023-04-24T02:24:34;10.00;99.90
9658;DHT22;4867;48.112;11.622;2023-04-24T02:27:01;9.90;99.90
9658;DHT22;4867;48.112;11.622;2023-04-24T02:29:29;9.80;99.90
9658;DHT22;4867;48.112;11.622;2023-04-24T02:31:57;9.80;99.90
9658;DHT22;4867;48.112;11.622;2023-04-24T02:34:24;9.80;99.90
9658;DHT22;4867;48.112;11.622;2023-04-24T02:36:52;9.80;99.90
9658;DHT22;4867;48.112;11.622;2023-04-24T02:39:20;9.80;99.90
9658;DHT22;4867;48.112;11.622;2023-04-24T02:41:48;9.80;99.90
9658;DHT22;4867;48.112;11.622;2023-04-24T02:44:16;9.80;99.90
9658;DHT22;4867;48.112;11.622;2023-04-24T02:46:44;9.80;99.90
9658;DHT22;4867;48.112;11.622;2023-04-24T02:49:11;9.80;99.90
9658;DHT22;4867;48.112;11.622;2023-04-24T02:51:39;9.80;99.90
9658;DHT22;4867;48.112;11.622;2023-04-24T02:54:09;9.80;99.90
9658;DHT22;4867;48.112;11.622;2023-04-24T02:56:39;9.80;99.90
9658;DHT22;4867;48.112;11.622;2023-04-24T02:59:09;9.80;99.90
9658;DHT22;4867;48.112;11.622;2023-04-24T03:01:37;9.80;99.90
9658;DHT22;4867;48.112;11.622;2023-04-24T03:04:05;9.70;99.90
9658;DHT22;4867;48.112;11.622;2023-04-24T03:06:32;9.70;99.90
9658;DHT22;4867;48.112;11.622;2023-04-24T03:09:02;9.70;99.90
9658;DHT22;4867;48.112;11.622;2023-04-24T03:11:31;9.70;99.90
9658;DHT22;4867;48.112;11.622;2023-04-24T03:13:58;9.70;99.90
9658;DHT22;4867;48.112;11.622;2023-04-24T03:16:26;9.70;99.90
9658;DHT22;4867;48.112;11.622;2023-04-24T03:18:54;9.70;99.90
9658;DHT22;4867;48.112;11.622;2023-04-24T03:21:24;9.70;99.90
9658;DHT22;4867;48.112;11.622;2023-04-24T03:23:52;9.60;99.90
9658;DHT22;4867;48.112;11.622;2023-04-24T03:26:20;9.60;99.90
9658;DHT22;4867;48.112;11.622;2023-04-24T03:29:02;9.60;99.90
9658;DHT22;4867;48.112;11.622;2023-04-24T03:31:29;9.60;99.90
9658;DHT22;4867;48.112;11.622;2023-04-24T03:33:57;9.50;99.90
9658;DHT22;4867;48.112;11.622;2023-04-24T03:36:25;9.50;99.90
9658;DHT22;4867;48.112;11.622;2023-04-24T03:38:54;9.50;99.90
9658;DHT22;4867;48.112;11.622;2023-04-24T03:41:31;9.50;99.90
9658;DHT22;4867;48.112;11.622;2023-04-24T03:44:12;9.50;99.90
9658;DHT22;4867;48.112;11.622;2023-04-24T03:46:40;9.50;99.90
9658;DHT22;4867;48.112;11.622;2023-04-24T03:49:07;9.50;99.90
9658;DHT22;4867;48.112;11.622;2023-04-24T03:51:38;9.50;99.90
9658;DHT22;4867;48.112;11.622;2023-04-24T03:54:15;9.50;99.90
9658;DHT22;4867;48.112;11.622;2023-04-24T03:56:42;9.50;99.90
9658;DHT22;4867;48.112;11.622;2023-04-24T03:59:10;9.50;99.90
9658;DHT22;4867;48.112;11.622;2023-04-24T04:01:39;9.50;99.90
9658;DHT22;4867;48.112;11.622;2023-04-24T04:04:13;9.50;99.90
9658;DHT22;4867;48.112;11.622;2023-04-24T04:06:43;9.50;99.90
9658;DHT22;4867;48.112;11.622;2023-04-24T04:09:11;9.40;99.90
9658;DHT22;4867;48.112;11.622;2023-04-24T04:11:39;9.50;99.90
9658;DHT22;4867;48.112;11.622;2023-04-24T04:14:07;9.50;99.90
9658;DHT22;4867;48.112;11.622;2023-04-24T04:16:38;9.50;99.90
9658;DHT22;4867;48.112;11.622;2023-04-24T04:19:06;9.50;99.90
9658;DHT22;4867;48.112;11.622;2023-04-24T04:21:34;9.50;99.90
9658;DHT22;4867;48.112;11.622;2023-04-24T04:24:12;9.50;99.90
9658;DHT22;4867;48.112;11.622;2023-04-24T04:26:43;9.40;99.90
9658;DHT22;4867;48.112;11.622;2023-04-24T04:29:21;9.40;99.90
9658;DHT22;4867;48.112;11.622;2023-04-24T04:31:51;9.40;99.90
9658;DHT22;4867;48.112;11.622;2023-04-24T04:34:18;9.40;99.90
9658;DHT22;4867;48.112;11.622;2023-04-24T04:36:46;9.40;99.90
9658;DHT22;4867;48.112;11.622;2023-04-24T04:39:25;9.40;99.90
9658;DHT22;4867;48.112;11.622;2023-04-24T04:41:58;9.40;99.90
9658;DHT22;4867;48.112;11.622;2023-04-24T04:44:31;9.40;99.90
9658;DHT22;4867;48.112;11.622;2023-04-24T04:46:59;9.30;99.90
9658;DHT22;4867;48.112;11.622;2023-04-24T04:49:31;9.40;99.90
9658;DHT22;4867;48.112;11.622;2023-04-24T04:51:59;9.40;99.90
9658;DHT22;4867;48.112;11.622;2023-04-24T04:54:27;9.40;99.90
9658;DHT22;4867;48.112;11.622;2023-04-24T04:56:56;9.50;99.90
9658;DHT22;4867;48.112;11.622;2023-04-24T04:59:24;9.50;99.90
9658;DHT22;4867;48.112;11.622;2023-04-24T05:01:57;9.50;99.90
9658;DHT22;4867;48.112;11.622;2023-04-24T05:04:25;9.50;99.90
9658;DHT22;4867;48.112;11.622;2023-04-24T05:06:52;9.50;99.90
9658;DHT22;4867;48.112;11.622;2023-04-24T05:09:22;9.50;99.90
9658;DHT22;4867;48.112;11.622;2023-04-24T05:11:55;9.50;99.90
9658;DHT22;4867;48.112;11.622;2023-04-24T05:14:24;9.50;99.90
9658;DHT22;4867;48.112;11.622;2023-04-24T05:16:51;9.50;99.90
9658;DHT22;4867;48.112;11.622;2023-04-24T05:19:21;9.50;99.90
9658;DHT22;4867;48.112;11.622;2023-04-24T05:21:48;9.50;99.90
9658;DHT22;4867;48.112;11.622;2023-04-24T05:24:16;9.60;99.90
9658;DHT22;4867;48.112;11.622;2023-04-24T05:26:52;9.60;99.90
9658;DHT22;4867;48.112;11.622;2023-04-24T05:29:24;9.60;99.90
9658;DHT22;4867;48.112;11.622;2023-04-24T05:31:53;9.60;99.90
9658;DHT22;4867;48.112;11.622;2023-04-24T05:34:22;9.60;99.90
9658;DHT22;4867;48.112;11.622;2023-04-24T05:36:53;9.70;99.90
9658;DHT22;4867;48.112;11.622;2023-04-24T05:39:21;9.70;99.90
9658;DHT22;4867;48.112;11.622;2023-04-24T05:41:48;9.70;99.90
9658;DHT22;4867;48.112;11.622;2023-04-24T05:44:15;9.70;99.90
9658;DHT22;4867;48.112;11.622;2023-04-24T05:46:42;9.80;99.90
9658;DHT22;4867;48.112;11.622;2023-04-24T05:49:11;9.80;99.90
9658;DHT22;4867;48.112;11.622;2023-04-24T05:51:39;9.90;99.90
9658;DHT22;4867;48.112;11.622;2023-04-24T05:54:07;9.80;99.90
9658;DHT22;4867;48.112;11.622;2023-04-24T05:56:35;9.90;99.90
9658;DHT22;4867;48.112;11.622;2023-04-24T05:59:07;9.90;99.90
9658;DHT22;4867;48.112;11.622;2023-04-24T06:01:35;10.10;99.90
9658;DHT22;4867;48.112;11.622;2023-04-24T06:04:13;9.90;99.90
9658;DHT22;4867;48.112;11.622;2023-04-24T06:06:41;10.00;99.90
9658;DHT22;4867;48.112;11.622;2023-04-24T06:09:08;10.10;99.90
9658;DHT22;4867;48.112;11.622;2023-04-24T06:11:36;10.20;99.90
9658;DHT22;4867;48.112;11.622;2023-04-24T06:14:04;10.20;99.90
9658;DHT22;4867;48.112;11.622;2023-04-24T06:16:39;10.30;99.90
9658;DHT22;4867;48.112;11.622;2023-04-24T06:19:24;10.40;99.90
9658;DHT22;4867;48.112;11.622;2023-04-24T06:21:52;10.60;99.90
9658;DHT22;4867;48.112;11.622;2023-04-24T06:24:19;10.80;99.90
9658;DHT22;4867;48.112;11.622;2023-04-24T06:26:47;10.70;99.90
9658;DHT22;4867;48.112;11.622;2023-04-24T06:29:14;10.80;99.90
9658;DHT22;4867;48.112;11.622;2023-04-24T06:31:41;10.80;99.90
9658;DHT22;4867;48.112;11.622;2023-04-24T06:34:10;10.80;99.90
9658;DHT22;4867;48.112;11.622;2023-04-24T06:36:37;10.90;99.90
9658;DHT22;4867;48.112;11.622;2023-04-24T06:39:04;10.90;99.90
9658;DHT22;4867;48.112;11.622;2023-04-24T06:41:32;10.90;99.90
9658;DHT22;4867;48.112;11.622;2023-04-24T06:43:59;11.00;99.90
9658;DHT22;4867;48.112;11.622;2023-04-24T06:46:26;11.10;99.90
9658;DHT22;4867;48.112;11.622;2023-04-24T06:48:54;11.10;99.90
9658;DHT22;4867;48.112;11.622;2023-04-24T06:51:26;11.20;99.90
9658;DHT22;4867;48.112;11.622;2023-04-24T06:53:54;11.30;99.90
9658;DHT22;4867;48.112;11.622;2023-04-24T06:56:23;11.50;99.90
9658;DHT22;4867;48.112;11.622;2023-04-24T06:58:50;11.50;99.90
9658;DHT22;4867;48.112;11.622;2023-04-24T07:01:18;11.70;99.90
9658;DHT22;4867;48.112;11.622;2023-04-24T07:03:45;11.70;99.90
9658;DHT22;4867;48.112;11.622;2023-04-24T07:06:13;11.80;99.90
9658;DHT22;4867;48.112;11.622;2023-04-24T07:08:40;12.00;99.90
9658;DHT22;4867;48.112;11.622;2023-04-24T07:11:09;12.00;99.90
9658;DHT22;4867;48.112;11.622;2023-04-24T07:13:36;12.10;99.90
9658;DHT22;4867;48.112;11.622;2023-04-24T07:16:03;12.20;99.90
9658;DHT22;4867;48.112;11.622;2023-04-24T07:18:31;12.20;99.90
9658;DHT22;4867;48.112;11.622;2023-04-24T07:20:58;12.20;99.90
9658;DHT22;4867;48.112;11.622;2023-04-24T07:23:25;12.20;99.90
9658;DHT22;4867;48.112;11.622;2023-04-24T07:25:52;12.40;99.90
9658;DHT22;4867;48.112;11.622;2023-04-24T07:28:20;12.40;99.90
9658;DHT22;4867;48.112;11.622;2023-04-24T07:30:47;12.60;99.90
9658;DHT22;4867;48.112;11.622;2023-04-24T07:33:15;12.70;99.90
9658;DHT22;4867;48.112;11.622;2023-04-24T07:35:42;12.90;99.90
9658;DHT22;4867;48.112;11.622;2023-04-24T07:38:09;13.00;99.90
9658;DHT22;4867;48.112;11.622;2023-04-24T07:40:37;13.10;99.90
9658;DHT22;4867;48.112;11.622;2023-04-24T07:43:04;13.00;99.90
9658;DHT22;4867;48.112;11.622;2023-04-24T07:45:32;12.70;99.90
9658;DHT22;4867;48.112;11.622;2023-04-24T07:48:03;12.60;99.90
9658;DHT22;4867;48.112;11.622;2023-04-24T07:50:31;12.40;99.90
9658;DHT22;4867;48.112;11.622;2023-04-24T07:52:58;12.30;99.90
9658;DHT22;4867;48.112;11.622;2023-04-24T07:55:25;12.40;99.90
9658;DHT22;4867;48.112;11.622;2023-04-24T07:57:54;12.40;99.90
9658;DHT22;4867;48.112;11.622;2023-04-24T08:00:21;12.50;99.90
9658;DHT22;4867;48.112;11.622;2023-04-24T08:02:48;12.40;99.90
9658;DHT22;4867;48.112;11.622;2023-04-24T08:05:16;12.50;99.90
9658;DHT22;4867;48.112;11.622;2023-04-24T08:07:45;12.40;99.90
9658;DHT22;4867;48.112;11.622;2023-04-24T08:10:15;12.30;99.90
9658;DHT22;4867;48.112;11.622;2023-04-24T08:12:42;12.30;99.90
9658;DHT22;4867;48.112;11.622;2023-04-24T08:15:10;12.30;99.90
9658;DHT22;4867;48.112;11.622;2023-04-24T08:17:37;12.40;99.90
9658;DHT22;4867;48.112;11.622;2023-04-24T08:20:05;12.60;99.90
9658;DHT22;4867;48.112;11.622;2023-04-24T08:22:37;12.80;99.90
9658;DHT22;4867;48.112;11.622;2023-04-24T08:25:04;12.80;99.90
9658;DHT22;4867;48.112;11.622;2023-04-24T08:27:32;12.70;99.90
9658;DHT22;4867;48.112;11.622;2023-04-24T08:29:59;12.50;99.90
9658;DHT22;4867;48.112;11.622;2023-04-24T08:32:27;12.10;99.90
9658;DHT22;4867;48.112;11.622;2023-04-24T08:34:57;12.10;99.90
9658;DHT22;4867;48.112;11.622;2023-04-24T08:37:26;11.90;99.90
9658;DHT22;4867;48.112;11.622;2023-04-24T08:39:53;11.70;99.90
9658;DHT22;4867;48.112;11.622;2023-04-24T08:42:21;11.40;99.90
9658;DHT22;4867;48.112;11.622;2023-04-24T08:44:49;11.20;99.90
9658;DHT22;4867;48.112;11.622;2023-04-24T08:47:17;11.00;99.90
9658;DHT22;4867;48.112;11.622;2023-04-24T08:49:48;10.80;99.90
9658;DHT22;4867;48.112;11.622;2023-04-24T08:52:16;10.50;99.90
9658;DHT22;4867;48.112;11.622;2023-04-24T08:54:43;10.40;99.90
9658;DHT22;4867;48.112;11.622;2023-04-24T08:57:14;10.50;99.90
9658;DHT22;4867;48.112;11.622;2023-04-24T08:59:42;10.60;99.90
9658;DHT22;4867;48.112;11.622;2023-04-24T09:02:11;10.70;99.90
9658;DHT22;4867;48.112;11.622;2023-04-24T09:04:40;10.70;99.90
9658;DHT22;4867;48.112;11.622;2023-04-24T09:07:09;10.80;99.90
9658;DHT22;4867;48.112;11.622;2023-04-24T09:09:38;10.60;99.90
9658;DHT22;4867;48.112;11.622;2023-04-24T09:12:06;10.60;99.90
9658;DHT22;4867;48.112;11.622;2023-04-24T09:14:33;10.70;99.90
9658;DHT22;4867;48.112;11.622;2023-04-24T09:17:00;10.70;99.90
9658;DHT22;4867;48.112;11.622;2023-04-24T09:19:28;10.70;99.90
9658;DHT22;4867;48.112;11.622;2023-04-24T09:21:55;10.70;99.90
9658;DHT22;4867;48.112;11.622;2023-04-24T09:24:23;10.70;99.90
9658;DHT22;4867;48.112;11.622;2023-04-24T09:26:58;10.90;99.90
9658;DHT22;4867;48.112;11.622;2023-04-24T09:29:25;10.90;99.90
9658;DHT22;4867;48.112;11.622;2023-04-24T09:31:53;11.00;99.90
9658;DHT22;4867;48.112;11.622;2023-04-24T09:34:27;11.20;99.90
9658;DHT22;4867;48.112;11.622;2023-04-24T09:36:54;11.40;99.90
9658;DHT22;4867;48.112;11.622;2023-04-24T09:39:22;11.60;99.90
9658;DHT22;4867;48.112;11.622;2023-04-24T09:41:54;11.90;99.90
9658;DHT22;4867;48.112;11.622;2023-04-24T09:44:26;11.90;99.90
9658;DHT22;4867;48.112;11.622;2023-04-24T09:46:56;12.10;99.90
9658;DHT22;4867;48.112;11.622;2023-04-24T09:49:25;12.10;99.90
9658;DHT22;4867;48.112;11.622;2023-04-24T09:52:02;12.10;99.90
9658;DHT22;4867;48.112;11.622;2023-04-24T09:54:29;12.30;99.90
9658;DHT22;4867;48.112;11.622;2023-04-24T09:56:56;12.60;99.90
9658;DHT22;4867;48.112;11.622;2023-04-24T09:59:24;12.70;99.90
9658;DHT22;4867;48.112;11.622;2023-04-24T10:01:51;12.90;99.90
9658;DHT22;4867;48.112;11.622;2023-04-24T10:04:21;13.10;99.90
9658;DHT22;4867;48.112;11.622;2023-04-24T10:06:51;13.00;99.90
9658;DHT22;4867;48.112;11.622;2023-04-24T10:09:21;12.80;99.90
9658;DHT22;4867;48.112;11.622;2023-04-24T10:11:50;12.60;99.90
9658;DHT22;4867;48.112;11.622;2023-04-24T10:14:20;12.70;99.90
9658;DHT22;4867;48.112;11.622;2023-04-24T10:16:48;13.10;99.90
9658;DHT22;4867;48.112;11.622;2023-04-24T10:19:16;13.20;99.90
9658;DHT22;4867;48.112;11.622;2023-04-24T10:21:46;13.40;99.90
9658;DHT22;4867;48.112;11.622;2023-04-24T10:24:15;13.30;99.90
9658;DHT22;4867;48.112;11.622;2023-04-24T10:26:44;13.00;99.90
9658;DHT22;4867;48.112;11.622;2023-04-24T10:29:16;13.00;99.90
9658;DHT22;4867;48.112;11.622;2023-04-24T10:31:43;13.20;99.90
9658;DHT22;4867;48.112;11.622;2023-04-24T10:34:16;13.60;99.90
9658;DHT22;4867;48.112;11.622;2023-04-24T10:36:49;13.80;99.90
9658;DHT22;4867;48.112;11.622;2023-04-24T10:39:18;13.90;99.90
9658;DHT22;4867;48.112;11.622;2023-04-24T10:41:54;14.10;99.90
9658;DHT22;4867;48.112;11.622;2023-04-24T10:44:24;14.00;99.90
9658;DHT22;4867;48.112;11.622;2023-04-24T10:46:55;13.90;99.90
9658;DHT22;4867;48.112;11.622;2023-04-24T10:49:31;13.70;99.90
9658;DHT22;4867;48.112;11.622;2023-04-24T10:52:04;13.60;99.90
9658;DHT22;4867;48.112;11.622;2023-04-24T11:00:18;12.90;99.90
9658;DHT22;4867;48.112;11.622;2023-04-24T11:02:47;11.60;99.90
9658;DHT22;4867;48.112;11.622;2023-04-24T11:05:21;10.70;99.90
9658;DHT22;4867;48.112;11.622;2023-04-24T11:13:15;10.10;99.90
9658;DHT22;4867;48.112;11.622;2023-04-24T11:15:42;10.30;99.90
9658;DHT22;4867;48.112;11.622;2023-04-24T11:18:14;10.70;99.90
9658;DHT22;4867;48.112;11.622;2023-04-24T11:20:44;11.10;99.90
9658;DHT22;4867;48.112;11.622;2023-04-24T11:23:12;11.40;99.90
9658;DHT22;4867;48.112;11.622;2023-04-24T11:25:41;11.70;99.90
9658;DHT22;4867;48.112;11.622;2023-04-24T11:28:14;11.90;99.90
9658;DHT22;4867;48.112;11.622;2023-04-24T11:30:43;11.90;99.90
9658;DHT22;4867;48.112;11.622;2023-04-24T11:33:10;12.00;99.90
9658;DHT22;4867;48.112;11.622;2023-04-24T11:35:41;12.20;99.90
9658;DHT22;4867;48.112;11.622;2023-04-24T11:38:10;12.50;99.90
9658;DHT22;4867;48.112;11.622;2023-04-24T11:40:40;12.50;99.90
9658;DHT22;4867;48.112;11.622;2023-04-24T11:43:09;12.50;99.90
9658;DHT22;4867;48.112;11.622;2023-04-24T11:45:36;12.50;99.90
9658;DHT22;4867;48.112;11.622;2023-04-24T11:48:04;12.40;99.90
9658;DHT22;4867;48.112;11.622;2023-04-24T11:50:31;12.40;99.90
9658;DHT22;4867;48.112;11.622;2023-04-24T11:52:58;12.50;99.90
9658;DHT22;4867;48.112;11.622;2023-04-24T11:55:28;12.40;99.90
9658;DHT22;4867;48.112;11.622;2023-04-24T11:57:58;12.30;99.90
9658;DHT22;4867;48.112;11.622;2023-04-24T12:00:28;12.30;99.90
9658;DHT22;4867;48.112;11.622;2023-04-24T12:03:09;12.20;99.90
9658;DHT22;4867;48.112;11.622;2023-04-24T12:05:38;12.30;99.90
9658;DHT22;4867;48.112;11.622;2023-04-24T12:08:06;12.30;99.90
9658;DHT22;4867;48.112;11.622;2023-04-24T12:10:34;12.50;99.90
9658;DHT22;4867;48.112;11.622;2023-04-24T12:13:02;12.70;99.90
9658;DHT22;4867;48.112;11.622;2023-04-24T12:15:29;12.80;99.90
9658;DHT22;4867;48.112;11.622;2023-04-24T12:17:57;12.80;99.90
9658;DHT22;4867;48.112;11.622;2023-04-24T12:20:28;12.90;99.90
9658;DHT22;4867;48.112;11.622;2023-04-24T12:22:57;13.10;99.90
9658;DHT22;4867;48.112;11.622;2023-04-24T12:25:27;13.10;99.90
9658;DHT22;4867;48.112;11.622;2023-04-24T12:30:39;13.30;99.90
9658;DHT22;4867;48.112;11.622;2023-04-24T12:33:06;13.30;99.90
9658;DHT22;4867;48.112;11.622;2023-04-24T12:35:34;13.50;99.90
9658;DHT22;4867;48.112;11.622;2023-04-24T12:38:13;13.60;99.90
9658;DHT22;4867;48.112;11.622;2023-04-24T12:40:42;14.10;99.90
9658;DHT22;4867;48.112;11.622;2023-04-24T12:43:20;14.40;99.90
9658;DHT22;4867;48.112;11.622;2023-04-24T12:45:48;14.70;99.90
9658;DHT22;4867;48.112;11.622;2023-04-24T12:48:15;14.80;99.90
9658;DHT22;4867;48.112;11.622;2023-04-24T12:50:43;14.90;99.90
9658;DHT22;4867;48.112;11.622;2023-04-24T12:53:13;15.00;99.90
9658;DHT22;4867;48.112;11.622;2023-04-24T12:55:40;15.10;99.90
9658;DHT22;4867;48.112;11.622;2023-04-24T12:58:08;15.00;99.90
9658;DHT22;4867;48.112;11.622;2023-04-24T13:00:35;14.80;99.90
9658;DHT22;4867;48.112;11.622;2023-04-24T13:03:03;14.70;99.90
9658;DHT22;4867;48.112;11.622;2023-04-24T13:05:31;14.50;99.90
9658;DHT22;4867;48.112;11.622;2023-04-24T13:07:59;14.60;99.90
9658;DHT22;4867;48.112;11.622;2023-04-24T13:10:26;14.50;99.90
9658;DHT22;4867;48.112;11.622;2023-04-24T13:12:53;14.60;99.90
9658;DHT22;4867;48.112;11.622;2023-04-24T13:15:21;14.70;99.90
9658;DHT22;4867;48.112;11.622;2023-04-24T13:17:48;14.70;99.90
9658;DHT22;4867;48.112;11.622;2023-04-24T13:20:16;14.70;99.90
9658;DHT22;4867;48.112;11.622;2023-04-24T13:22:44;14.60;99.90
9658;DHT22;4867;48.112;11.622;2023-04-24T13:25:11;14.40;99.90
9658;DHT22;4867;48.112;11.622;2023-04-24T13:27:39;14.00;99.90
9658;DHT22;4867;48.112;11.622;2023-04-24T13:30:07;13.80;99.90
9658;DHT22;4867;48.112;11.622;2023-04-24T13:32:34;13.70;99.90
9658;DHT22;4867;48.112;11.622;2023-04-24T13:35:02;13.60;99.90
9658;DHT22;4867;48.112;11.622;2023-04-24T13:37:29;13.70;99.90
9658;DHT22;4867;48.112;11.622;2023-04-24T13:39:57;13.80;99.90
9658;DHT22;4867;48.112;11.622;2023-04-24T13:42:24;14.00;99.90
9658;DHT22;4867;48.112;11.622;2023-04-24T13:44:52;14.20;99.90
9658;DHT22;4867;48.112;11.622;2023-04-24T13:47:19;14.10;99.90
9658;DHT22;4867;48.112;11.622;2023-04-24T13:49:46;14.30;99.90
9658;DHT22;4867;48.112;11.622;2023-04-24T13:52:14;14.30;99.90
9658;DHT22;4867;48.112;11.622;2023-04-24T13:54:41;14.20;99.90
9658;DHT22;4867;48.112;11.622;2023-04-24T13:57:08;14.20;99.90
9658;DHT22;4867;48.112;11.622;2023-04-24T13:59:35;14.00;99.90
9658;DHT22;4867;48.112;11.622;2023-04-24T14:02:04;14.00;99.90
9658;DHT22;4867;48.112;11.622;2023-04-24T14:04:31;14.00;99.90
9658;DHT22;4867;48.112;11.622;2023-04-24T14:06:58;13.90;99.90
9658;DHT22;4867;48.112;11.622;2023-04-24T14:09:25;13.90;99.90
9658;DHT22;4867;48.112;11.622;2023-04-24T14:11:53;13.80;99.90
9658;DHT22;4867;48.112;11.622;2023-04-24T14:14:20;13.90;99.90
9658;DHT22;4867;48.112;11.622;2023-04-24T14:16:47;14.00;99.90
9658;DHT22;4867;48.112;11.622;2023-04-24T14:19:14;14.30;99.90
9658;DHT22;4867;48.112;11.622;2023-04-24T14:21:42;14.50;99.90
9658;DHT22;4867;48.112;11.622;2023-04-24T14:24:09;14.50;99.90
9658;DHT22;4867;48.112;11.622;2023-04-24T14:26:37;14.60;99.90
9658;DHT22;4867;48.112;11.622;2023-04-24T14:29:04;14.50;99.90
9658;DHT22;4867;48.112;11.622;2023-04-24T14:31:41;14.00;99.90
9658;DHT22;4867;48.112;11.622;2023-04-24T14:34:09;13.80;99.90
9658;DHT22;4867;48.112;11.622;2023-04-24T14:36:36;13.70;99.90
9658;DHT22;4867;48.112;11.622;2023-04-24T14:39:03;13.90;99.90
9658;DHT22;4867;48.112;11.622;2023-04-24T14:41:33;13.80;99.90
9658;DHT22;4867;48.112;11.622;2023-04-24T14:44:04;13.90;99.90
9658;DHT22;4867;48.112;11.622;2023-04-24T14:46:31;13.80;99.90
9658;DHT22;4867;48.112;11.622;2023-04-24T14:48:59;13.70;99.90
9658;DHT22;4867;48.112;11.622;2023-04-24T14:51:26;13.70;99.90
9658;DHT22;4867;48.112;11.622;2023-04-24T14:53:54;13.70;99.90
9658;DHT22;4867;48.112;11.622;2023-04-24T14:56:23;13.80;99.90
9658;DHT22;4867;48.112;11.622;2023-04-24T14:58:51;13.60;99.90
9658;DHT22;4867;48.112;11.622;2023-04-24T15:01:18;13.40;99.90
9658;DHT22;4867;48.112;11.622;2023-04-24T15:03:45;13.30;99.90
9658;DHT22;4867;48.112;11.622;2023-04-24T15:06:13;13.60;99.90
9658;DHT22;4867;48.112;11.622;2023-04-24T15:08:41;13.40;99.90
9658;DHT22;4867;48.112;11.622;2023-04-24T15:11:10;13.40;99.90
9658;DHT22;4867;48.112;11.622;2023-04-24T15:13:37;13.60;99.90
9658;DHT22;4867;48.112;11.622;2023-04-24T15:16:05;13.60;99.90
9658;DHT22;4867;48.112;11.622;2023-04-24T15:18:32;13.50;99.90
9658;DHT22;4867;48.112;11.622;2023-04-24T15:20:59;13.40;99.90
9658;DHT22;4867;48.112;11.622;2023-04-24T15:23:27;13.50;99.90
9658;DHT22;4867;48.112;11.622;2023-04-24T15:25:54;13.40;99.90
9658;DHT22;4867;48.112;11.622;2023-04-24T15:28:21;13.40;99.90
9658;DHT22;4867;48.112;11.622;2023-04-24T15:30:49;13.30;99.90
9658;DHT22;4867;48.112;11.622;2023-04-24T15:33:16;13.20;99.90
9658;DHT22;4867;48.112;11.622;2023-04-24T15:35:43;13.30;99.90
9658;DHT22;4867;48.112;11.622;2023-04-24T15:38:10;13.30;99.90
9658;DHT22;4867;48.112;11.622;2023-04-24T15:40:37;13.10;99.90
9658;DHT22;4867;48.112;11.622;2023-04-24T15:43:05;13.20;99.90
9658;DHT22;4867;48.112;11.622;2023-04-24T15:45:32;13.00;99.90
9658;DHT22;4867;48.112;11.622;2023-04-24T15:48:00;13.30;99.90
9658;DHT22;4867;48.112;11.622;2023-04-24T15:50:27;13.30;99.90
9658;DHT22;4867;48.112;11.622;2023-04-24T15:52:55;13.30;99.90
9658;DHT22;4867;48.112;11.622;2023-04-24T15:55:22;13.10;99.90
9658;DHT22;4867;48.112;11.622;2023-04-24T15:57:49;13.20;99.90
9658;DHT22;4867;48.112;11.622;2023-04-24T16:00:17;13.10;99.90
9658;DHT22;4867;48.112;11.622;2023-04-24T16:02:44;13.00;99.90
9658;DHT22;4867;48.112;11.622;2023-04-24T16:05:12;12.90;99.90
9658;DHT22;4867;48.112;11.622;2023-04-24T16:07:39;12.90;99.90
9658;DHT22;4867;48.112;11.622;2023-04-24T16:10:09;12.70;99.90
9658;DHT22;4867;48.112;11.622;2023-04-24T16:12:37;12.80;99.90